sensor_id;sensor_type;location;lat;lon;timestamp;temperature;humidity
4985;DHT22;2509;49.902;8.600;2023-04-06T00:01:26;4.20;99.90
4985;DHT22;2509;49.902;8.600;2023-04-06T00:04:29;4.20;99.90
4985;DHT22;2509;49.902;8.600;2023-04-06T00:07:31;4.20;99.90
4985;DHT22;2509;49.902;8.600;2023-04-06T00:10:33;4.20;99.90
4985;DHT22;2509;49.902;8.600;2023-04-06T00:13:35;4.20;99.90
4985;DHT22;2509;49.902;8.600;2023-04-06T00:16:37;4.20;99.90
4985;DHT22;2509;49.902;8.600;2023-04-06T00:19:41;4.20;99.90
4985;DHT22;2509;49.902;8.600;2023-04-06T00:22:43;4.10;99.90
4985;DHT22;2509;49.902;8.600;2023-04-06T00:25:45;4.20;99.90
4985;DHT22;2509;49.902;8.600;2023-04-06T00:28:47;4.20;99.90
4985;DHT22;2509;49.902;8.600;2023-04-06T00:31:50;4.20;99.90
4985;DHT22;2509;49.902;8.600;2023-04-06T00:34:53;4.10;99.90
4985;DHT22;2509;49.902;8.600;2023-04-06T00:37:55;4.10;99.90
4985;DHT22;2509;49.902;8.600;2023-04-06T00:40:57;4.10;99.90
4985;DHT22;2509;49.902;8.600;2023-04-06T00:43:59;4.10;99.90
4985;DHT22;2509;49.902;8.600;2023-04-06T00:47:01;4.10;99.90
4985;DHT22;2509;49.902;8.600;2023-04-06T00:50:06;4.10;99.90
4985;DHT22;2509;49.902;8.600;2023-04-06T00:53:08;4.00;99.90
4985;DHT22;2509;49.902;8.600;2023-04-06T00:56:09;4.00;99.90
4985;DHT22;2509;49.902;8.600;2023-04-06T00:59:12;3.80;99.90
4985;DHT22;2509;49.902;8.600;2023-04-06T01:02:14;3.60;99.90
4985;DHT22;2509;49.902;8.600;2023-04-06T01:05:18;3.50;99.90
4985;DHT22;2509;49.902;8.600;2023-04-06T01:08:20;3.60;99.90
4985;DHT22;2509;49.902;8.600;2023-04-06T01:11:22;3.60;99.90
4985;DHT22;2509;49.902;8.600;2023-04-06T01:14:24;3.60;99.90
4985;DHT22;2509;49.902;8.600;2023-04-06T01:17:26;3.60;99.90
4985;DHT22;2509;49.902;8.600;2023-04-06T01:20:30;3.50;99.90
4985;DHT22;2509;49.902;8.600;2023-04-06T01:23:33;3.50;99.90
4985;DHT22;2509;49.902;8.600;2023-04-06T01:26:36;3.40;99.90
4985;DHT22;2509;49.902;8.600;2023-04-06T01:29:39;3.30;99.90
4985;DHT22;2509;49.902;8.600;2023-04-06T01:32:42;3.30;99.90
4985;DHT22;2509;49.902;8.600;2023-04-06T01:35:43;3.30;99.90
4985;DHT22;2509;49.902;8.600;2023-04-06T01:38:47;3.30;99.90
4985;DHT22;2509;49.902;8.600;2023-04-06T01:41:49;3.30;99.90
4985;DHT22;2509;49.902;8.600;2023-04-06T01:44:51;3.30;99.90
4985;DHT22;2509;49.902;8.600;2023-04-06T01:47:53;3.20;99.90
4985;DHT22;2509;49.902;8.600;2023-04-06T01:50:55;3.20;99.90
4985;DHT22;2509;49.902;8.600;2023-04-06T01:53:58;3.20;99.90
4985;DHT22;2509;49.902;8.600;2023-04-06T01:57:00;3.20;99.90
4985;DHT22;2509;49.902;8.600;2023-04-06T02:00:02;3.20;99.90
4985;DHT22;2509;49.902;8.600;2023-04-06T02:03:05;3.10;99.90
4985;DHT22;2509;49.902;8.600;2023-04-06T02:06:06;3.00;99.90
4985;DHT22;2509;49.902;8.600;2023-04-06T02:09:10;3.00;99.90
4985;DHT22;2509;49.902;8.600;2023-04-06T02:12:12;3.00;99.90
4985;DHT22;2509;49.902;8.600;2023-04-06T02:15:14;2.90;99.90
4985;DHT22;2509;49.902;8.600;2023-04-06T02:18:15;2.90;99.90
4985;DHT22;2509;49.902;8.600;2023-04-06T02:21:18;2.90;99.90
4985;DHT22;2509;49.902;8.600;2023-04-06T02:24:22;2.90;99.90
4985;DHT22;2509;49.902;8.600;2023-04-06T02:27:24;2.90;99.90
4985;DHT22;2509;49.902;8.600;2023-04-06T02:30:26;2.90;99.90
4985;DHT22;2509;49.902;8.600;2023-04-06T02:33:29;2.80;99.90
4985;DHT22;2509;49.902;8.600;2023-04-06T02:36:31;2.80;99.90
4985;DHT22;2509;49.902;8.600;2023-04-06T02:39:34;2.80;99.90
4985;DHT22;2509;49.902;8.600;2023-04-06T02:42:36;2.70;99.90
4985;DHT22;2509;49.902;8.600;2023-04-06T02:45:38;2.70;99.90
4985;DHT22;2509;49.902;8.600;2023-04-06T02:48:40;2.60;99.90
4985;DHT22;2509;49.902;8.600;2023-04-06T02:51:42;2.50;99.90
4985;DHT22;2509;49.902;8.600;2023-04-06T02:54:45;2.40;99.90
4985;DHT22;2509;49.902;8.600;2023-04-06T02:57:47;2.20;99.90
4985;DHT22;2509;49.902;8.600;2023-04-06T03:00:49;2.20;99.90
4985;DHT22;2509;49.902;8.600;2023-04-06T03:03:51;2.20;99.90
4985;DHT22;2509;49.902;8.600;2023-04-06T03:06:53;2.20;99.90
4985;DHT22;2509;49.902;8.600;2023-04-06T03:09:57;2.30;99.90
4985;DHT22;2509;49.902;8.600;2023-04-06T03:12:59;2.30;99.90
4985;DHT22;2509;49.902;8.600;2023-04-06T03:16:01;2.30;99.90
4985;DHT22;2509;49.902;8.600;2023-04-06T03:19:02;2.30;99.90
4985;DHT22;2509;49.902;8.600;2023-04-06T03:22:04;2.20;99.90
4985;DHT22;2509;49.902;8.600;2023-04-06T03:25:08;2.20;99.90
4985;DHT22;2509;49.902;8.600;2023-04-06T03:28:10;2.20;99.90
4985;DHT22;2509;49.902;8.600;2023-04-06T03:31:12;2.20;99.90
4985;DHT22;2509;49.902;8.600;2023-04-06T03:34:14;2.20;99.90
4985;DHT22;2509;49.902;8.600;2023-04-06T03:37:16;2.10;99.90
4985;DHT22;2509;49.902;8.600;2023-04-06T03:40:19;2.00;99.90
4985;DHT22;2509;49.902;8.600;2023-04-06T03:43:21;2.00;99.90
4985;DHT22;2509;49.902;8.600;2023-04-06T03:46:23;1.90;99.90
4985;DHT22;2509;49.902;8.600;2023-04-06T03:49:25;1.60;99.90
4985;DHT22;2509;49.902;8.600;2023-04-06T03:52:27;1.60;99.90
4985;DHT22;2509;49.902;8.600;2023-04-06T03:55:30;1.70;99.90
4985;DHT22;2509;49.902;8.600;2023-04-06T03:58:32;1.70;99.90
4985;DHT22;2509;49.902;8.600;2023-04-06T04:01:34;1.70;99.90
4985;DHT22;2509;49.902;8.600;2023-04-06T04:04:35;1.70;99.90
4985;DHT22;2509;49.902;8.600;2023-04-06T04:07:37;1.70;99.90
4985;DHT22;2509;49.902;8.600;2023-04-06T04:10:40;1.90;99.90
4985;DHT22;2509;49.902;8.600;2023-04-06T04:13:42;1.90;99.90
4985;DHT22;2509;49.902;8.600;2023-04-06T04:16:44;1.90;99.90
4985;DHT22;2509;49.902;8.600;2023-04-06T04:19:46;1.80;99.90
4985;DHT22;2509;49.902;8.600;2023-04-06T04:22:48;1.90;99.90
4985;DHT22;2509;49.902;8.600;2023-04-06T04:25:51;1.90;99.90
4985;DHT22;2509;49.902;8.600;2023-04-06T04:28:53;2.00;99.90
4985;DHT22;2509;49.902;8.600;2023-04-06T04:31:55;2.00;99.90
4985;DHT22;2509;49.902;8.600;2023-04-06T04:34:57;1.90;99.90
4985;DHT22;2509;49.902;8.600;2023-04-06T04:37:59;1.80;99.90
4985;DHT22;2509;49.902;8.600;2023-04-06T04:41:02;1.80;99.90
4985;DHT22;2509;49.902;8.600;2023-04-06T04:44:04;1.80;99.90
4985;DHT22;2509;49.902;8.600;2023-04-06T04:47:06;1.80;99.90
4985;DHT22;2509;49.902;8.600;2023-04-06T04:50:09;1.80;99.90
4985;DHT22;2509;49.902;8.600;2023-04-06T04:53:11;1.80;99.90
4985;DHT22;2509;49.902;8.600;2023-04-06T04:56:14;1.80;99.90
4985;DHT22;2509;49.902;8.600;2023-04-06T04:59:16;1.70;99.90
4985;DHT22;2509;49.902;8.600;2023-04-06T05:02:18;1.70;99.90
4985;DHT22;2509;49.902;8.600;2023-04-06T05:05:20;1.70;99.90
4985;DHT22;2509;49.902;8.600;2023-04-06T05:08:22;1.60;99.90
4985;DHT22;2509;49.902;8.600;2023-04-06T05:11:25;1.50;99.90
4985;DHT22;2509;49.902;8.600;2023-04-06T05:14:27;1.50;99.90
4985;DHT22;2509;49.902;8.600;2023-04-06T05:17:29;1.50;99.90
4985;DHT22;2509;49.902;8.600;2023-04-06T05:20:31;1.50;99.90
4985;DHT22;2509;49.902;8.600;2023-04-06T05:23:33;1.40;99.90
4985;DHT22;2509;49.902;8.600;2023-04-06T05:26:36;1.50;99.90
4985;DHT22;2509;49.902;8.600;2023-04-06T05:29:38;1.60;99.90
4985;DHT22;2509;49.902;8.600;2023-04-06T05:32:40;1.70;99.90
4985;DHT22;2509;49.902;8.600;2023-04-06T05:35:43;1.70;99.90
4985;DHT22;2509;49.902;8.600;2023-04-06T05:38:45;1.80;99.90
4985;DHT22;2509;49.902;8.600;2023-04-06T05:41:48;1.80;99.90
4985;DHT22;2509;49.902;8.600;2023-04-06T05:44:50;1.90;99.90
4985;DHT22;2509;49.902;8.600;2023-04-06T05:47:52;1.80;99.90
4985;DHT22;2509;49.902;8.600;2023-04-06T05:50:54;1.90;99.90
4985;DHT22;2509;49.902;8.600;2023-04-06T05:53:56;2.00;99.90
4985;DHT22;2509;49.902;8.600;2023-04-06T05:57:01;2.00;99.90
4985;DHT22;2509;49.902;8.600;2023-04-06T06:00:04;2.10;99.90
4985;DHT22;2509;49.902;8.600;2023-04-06T06:03:07;2.20;99.90
4985;DHT22;2509;49.902;8.600;2023-04-06T06:06:11;2.30;99.90
4985;DHT22;2509;49.902;8.600;2023-04-06T06:09:13;2.40;99.90
4985;DHT22;2509;49.902;8.600;2023-04-06T06:12:16;2.50;99.90
4985;DHT22;2509;49.902;8.600;2023-04-06T06:15:18;2.60;99.90
4985;DHT22;2509;49.902;8.600;2023-04-06T06:18:21;2.70;99.90
4985;DHT22;2509;49.902;8.600;2023-04-06T06:21:23;2.90;99.90
4985;DHT22;2509;49.902;8.600;2023-04-06T06:24:25;3.00;99.90
4985;DHT22;2509;49.902;8.600;2023-04-06T06:27:28;3.10;99.90
4985;DHT22;2509;49.902;8.600;2023-04-06T06:30:30;3.30;99.90
4985;DHT22;2509;49.902;8.600;2023-04-06T06:33:32;3.40;99.90
4985;DHT22;2509;49.902;8.600;2023-04-06T06:36:34;3.50;99.90
4985;DHT22;2509;49.902;8.600;2023-04-06T06:39:35;3.70;99.90
4985;DHT22;2509;49.902;8.600;2023-04-06T06:42:39;3.80;99.90
4985;DHT22;2509;49.902;8.600;2023-04-06T06:45:41;3.90;99.90
4985;DHT22;2509;49.902;8.600;2023-04-06T06:48:43;4.10;99.90
4985;DHT22;2509;49.902;8.600;2023-04-06T06:51:45;4.20;99.90
4985;DHT22;2509;49.902;8.600;2023-04-06T06:54:47;4.30;99.90
4985;DHT22;2509;49.902;8.600;2023-04-06T06:57:50;4.40;99.90
4985;DHT22;2509;49.902;8.600;2023-04-06T07:00:55;4.60;99.90
4985;DHT22;2509;49.902;8.600;2023-04-06T07:03:57;4.70;99.90
4985;DHT22;2509;49.902;8.600;2023-04-06T07:06:59;4.80;99.90
4985;DHT22;2509;49.902;8.600;2023-04-06T07:10:01;5.00;99.90
4985;DHT22;2509;49.902;8.600;2023-04-06T07:13:05;5.10;99.90
4985;DHT22;2509;49.902;8.600;2023-04-06T07:16:07;5.40;99.90
4985;DHT22;2509;49.902;8.600;2023-04-06T07:19:08;5.50;99.90
4985;DHT22;2509;49.902;8.600;2023-04-06T07:22:11;5.50;99.90
4985;DHT22;2509;49.902;8.600;2023-04-06T07:25:13;5.50;99.90
4985;DHT22;2509;49.902;8.600;2023-04-06T07:28:16;5.60;99.90
4985;DHT22;2509;49.902;8.600;2023-04-06T07:31:18;5.80;99.90
4985;DHT22;2509;49.902;8.600;2023-04-06T07:34:20;5.90;99.90
4985;DHT22;2509;49.902;8.600;2023-04-06T07:37:22;6.00;99.90
4985;DHT22;2509;49.902;8.600;2023-04-06T07:40:24;6.10;99.90
4985;DHT22;2509;49.902;8.600;2023-04-06T07:43:28;6.30;99.90
4985;DHT22;2509;49.902;8.600;2023-04-06T07:46:30;6.50;99.90
4985;DHT22;2509;49.902;8.600;2023-04-06T07:49:32;6.60;99.90
4985;DHT22;2509;49.902;8.600;2023-04-06T07:52:34;7.00;99.90
4985;DHT22;2509;49.902;8.600;2023-04-06T07:55:36;7.00;99.90
4985;DHT22;2509;49.902;8.600;2023-04-06T07:58:39;7.10;99.90
4985;DHT22;2509;49.902;8.600;2023-04-06T08:01:41;7.40;99.90
4985;DHT22;2509;49.902;8.600;2023-04-06T08:04:44;7.60;99.90
4985;DHT22;2509;49.902;8.600;2023-04-06T08:07:46;7.80;99.90
4985;DHT22;2509;49.902;8.600;2023-04-06T08:10:47;8.10;99.90
4985;DHT22;2509;49.902;8.600;2023-04-06T08:13:51;8.30;99.90
4985;DHT22;2509;49.902;8.600;2023-04-06T08:16:53;8.50;99.90
4985;DHT22;2509;49.902;8.600;2023-04-06T08:19:55;8.60;99.90
4985;DHT22;2509;49.902;8.600;2023-04-06T08:22:56;8.70;99.90
4985;DHT22;2509;49.902;8.600;2023-04-06T08:25:58;8.70;99.90
4985;DHT22;2509;49.902;8.600;2023-04-06T08:29:02;8.70;99.90
4985;DHT22;2509;49.902;8.600;2023-04-06T08:32:04;9.00;99.30
4985;DHT22;2509;49.902;8.600;2023-04-06T08:35:07;9.10;99.20
4985;DHT22;2509;49.902;8.600;2023-04-06T08:38:09;9.30;98.80
4985;DHT22;2509;49.902;8.600;2023-04-06T08:41:12;9.50;98.00
4985;DHT22;2509;49.902;8.600;2023-04-06T08:44:16;9.60;98.00
4985;DHT22;2509;49.902;8.600;2023-04-06T08:47:19;9.90;97.50
4985;DHT22;2509;49.902;8.600;2023-04-06T08:50:21;10.20;97.00
4985;DHT22;2509;49.902;8.600;2023-04-06T08:53:23;10.60;96.50
4985;DHT22;2509;49.902;8.600;2023-04-06T08:56:27;10.60;94.40
4985;DHT22;2509;49.902;8.600;2023-04-06T08:59:31;10.70;94.70
4985;DHT22;2509;49.902;8.600;2023-04-06T09:02:33;10.80;93.10
4985;DHT22;2509;49.902;8.600;2023-04-06T09:05:35;11.00;92.20
4985;DHT22;2509;49.902;8.600;2023-04-06T09:08:40;10.90;92.30
4985;DHT22;2509;49.902;8.600;2023-04-06T09:11:46;11.00;93.20
4985;DHT22;2509;49.902;8.600;2023-04-06T09:14:49;11.30;92.80
4985;DHT22;2509;49.902;8.600;2023-04-06T09:17:51;11.30;91.70
4985;DHT22;2509;49.902;8.600;2023-04-06T09:20:58;11.50;91.30
4985;DHT22;2509;49.902;8.600;2023-04-06T09:24:00;11.70;91.30
4985;DHT22;2509;49.902;8.600;2023-04-06T09:27:02;11.80;90.90
4985;DHT22;2509;49.902;8.600;2023-04-06T09:30:07;11.70;90.30
4985;DHT22;2509;49.902;8.600;2023-04-06T09:33:10;12.00;90.20
4985;DHT22;2509;49.902;8.600;2023-04-06T09:36:12;12.10;90.70
4985;DHT22;2509;49.902;8.600;2023-04-06T09:39:20;12.20;90.90
4985;DHT22;2509;49.902;8.600;2023-04-06T09:42:23;12.20;89.60
4985;DHT22;2509;49.902;8.600;2023-04-06T09:45:29;12.10;89.10
4985;DHT22;2509;49.902;8.600;2023-04-06T09:48:34;12.40;91.00
4985;DHT22;2509;49.902;8.600;2023-04-06T09:51:38;12.80;89.40
4985;DHT22;2509;49.902;8.600;2023-04-06T09:54:42;12.90;89.50
4985;DHT22;2509;49.902;8.600;2023-04-06T09:57:49;13.20;87.80
4985;DHT22;2509;49.902;8.600;2023-04-06T10:00:59;13.20;88.20
4985;DHT22;2509;49.902;8.600;2023-04-06T10:04:13;13.50;87.80
4985;DHT22;2509;49.902;8.600;2023-04-06T10:07:21;13.50;88.30
4985;DHT22;2509;49.902;8.600;2023-04-06T10:10:23;13.70;88.80
4985;DHT22;2509;49.902;8.600;2023-04-06T10:13:25;13.80;87.70
4985;DHT22;2509;49.902;8.600;2023-04-06T10:16:28;13.90;87.10
4985;DHT22;2509;49.902;8.600;2023-04-06T10:19:37;14.10;86.80
4985;DHT22;2509;49.902;8.600;2023-04-06T10:22:45;14.20;85.90
4985;DHT22;2509;49.902;8.600;2023-04-06T10:25:54;14.30;85.70
4985;DHT22;2509;49.902;8.600;2023-04-06T10:29:02;14.40;84.80
4985;DHT22;2509;49.902;8.600;2023-04-06T10:32:06;14.40;85.90
4985;DHT22;2509;49.902;8.600;2023-04-06T10:35:09;14.50;83.90
4985;DHT22;2509;49.902;8.600;2023-04-06T10:38:11;14.70;83.20
4985;DHT22;2509;49.902;8.600;2023-04-06T10:41:17;14.70;81.90
4985;DHT22;2509;49.902;8.600;2023-04-06T10:44:21;14.70;82.70
4985;DHT22;2509;49.902;8.600;2023-04-06T10:47:24;14.90;83.70
4985;DHT22;2509;49.902;8.600;2023-04-06T10:50:29;15.30;82.80
4985;DHT22;2509;49.902;8.600;2023-04-06T10:53:33;15.20;81.50
4985;DHT22;2509;49.902;8.600;2023-04-06T10:56:37;15.20;82.40
4985;DHT22;2509;49.902;8.600;2023-04-06T10:59:42;15.40;80.50
4985;DHT22;2509;49.902;8.600;2023-04-06T11:02:46;15.60;80.00
4985;DHT22;2509;49.902;8.600;2023-04-06T11:05:50;15.60;79.00
4985;DHT22;2509;49.902;8.600;2023-04-06T11:08:52;15.60;80.10
4985;DHT22;2509;49.902;8.600;2023-04-06T11:11:55;16.00;80.50
4985;DHT22;2509;49.902;8.600;2023-04-06T11:14:58;16.30;78.50
4985;DHT22;2509;49.902;8.600;2023-04-06T11:18:06;16.20;80.10
4985;DHT22;2509;49.902;8.600;2023-04-06T11:21:07;16.40;77.80
4985;DHT22;2509;49.902;8.600;2023-04-06T11:24:11;16.70;78.30
4985;DHT22;2509;49.902;8.600;2023-04-06T11:27:14;16.90;75.90
4985;DHT22;2509;49.902;8.600;2023-04-06T11:30:16;17.30;73.60
4985;DHT22;2509;49.902;8.600;2023-04-06T11:33:23;17.80;73.20
4985;DHT22;2509;49.902;8.600;2023-04-06T11:36:27;18.00;73.80
4985;DHT22;2509;49.902;8.600;2023-04-06T11:39:30;18.20;74.00
4985;DHT22;2509;49.902;8.600;2023-04-06T11:42:34;18.10;71.80
4985;DHT22;2509;49.902;8.600;2023-04-06T11:45:40;17.90;71.30
4985;DHT22;2509;49.902;8.600;2023-04-06T11:48:47;18.10;70.50
4985;DHT22;2509;49.902;8.600;2023-04-06T11:51:49;18.20;70.60
4985;DHT22;2509;49.902;8.600;2023-04-06T11:54:52;18.50;70.80
4985;DHT22;2509;49.902;8.600;2023-04-06T11:57:54;18.50;70.90
4985;DHT22;2509;49.902;8.600;2023-04-06T12:01:03;18.30;69.30
4985;DHT22;2509;49.902;8.600;2023-04-06T12:04:06;18.20;70.40
4985;DHT22;2509;49.902;8.600;2023-04-06T12:07:08;18.40;70.40
4985;DHT22;2509;49.902;8.600;2023-04-06T12:10:10;18.20;70.20
4985;DHT22;2509;49.902;8.600;2023-04-06T12:13:12;18.50;69.80
4985;DHT22;2509;49.902;8.600;2023-04-06T12:16:14;18.70;69.30
4985;DHT22;2509;49.902;8.600;2023-04-06T12:19:17;18.90;69.00
4985;DHT22;2509;49.902;8.600;2023-04-06T12:22:19;18.50;68.80
4985;DHT22;2509;49.902;8.600;2023-04-06T12:25:21;18.30;69.70
4985;DHT22;2509;49.902;8.600;2023-04-06T12:28:22;18.30;70.20
4985;DHT22;2509;49.902;8.600;2023-04-06T12:31:27;18.40;69.70
4985;DHT22;2509;49.902;8.600;2023-04-06T12:34:30;18.10;69.80
4985;DHT22;2509;49.902;8.600;2023-04-06T12:37:32;18.10;69.60
4985;DHT22;2509;49.902;8.600;2023-04-06T12:40:36;18.10;69.50
4985;DHT22;2509;49.902;8.600;2023-04-06T12:43:41;18.30;69.10
4985;DHT22;2509;49.902;8.600;2023-04-06T12:46:43;18.30;69.00
4985;DHT22;2509;49.902;8.600;2023-04-06T12:49:47;17.80;70.10
4985;DHT22;2509;49.902;8.600;2023-04-06T12:52:48;18.50;70.30
4985;DHT22;2509;49.902;8.600;2023-04-06T12:55:52;18.90;70.30
4985;DHT22;2509;49.902;8.600;2023-04-06T12:58:55;19.20;69.60
4985;DHT22;2509;49.902;8.600;2023-04-06T13:01:56;19.30;67.70
4985;DHT22;2509;49.902;8.600;2023-04-06T13:05:00;18.90;68.40
4985;DHT22;2509;49.902;8.600;2023-04-06T13:08:01;18.50;69.30
4985;DHT22;2509;49.902;8.600;2023-04-06T13:11:04;18.10;68.80
4985;DHT22;2509;49.902;8.600;2023-04-06T13:14:08;18.00;69.20
4985;DHT22;2509;49.902;8.600;2023-04-06T13:17:10;17.90;69.50
4985;DHT22;2509;49.902;8.600;2023-04-06T13:20:13;17.60;70.60
4985;DHT22;2509;49.902;8.600;2023-04-06T13:23:15;17.80;69.30
4985;DHT22;2509;49.902;8.600;2023-04-06T13:26:17;17.80;69.90
4985;DHT22;2509;49.902;8.600;2023-04-06T13:29:19;18.00;69.20
4985;DHT22;2509;49.902;8.600;2023-04-06T13:32:21;18.20;69.80
4985;DHT22;2509;49.902;8.600;2023-04-06T13:35:24;18.60;69.30
4985;DHT22;2509;49.902;8.600;2023-04-06T13:38:26;18.70;69.10
4985;DHT22;2509;49.902;8.600;2023-04-06T13:41:28;19.20;68.50
4985;DHT22;2509;49.902;8.600;2023-04-06T13:44:30;19.40;67.90
4985;DHT22;2509;49.902;8.600;2023-04-06T13:47:32;19.30;67.40
4985;DHT22;2509;49.902;8.600;2023-04-06T13:50:36;19.00;68.20
4985;DHT22;2509;49.902;8.600;2023-04-06T13:53:38;18.80;69.00
4985;DHT22;2509;49.902;8.600;2023-04-06T13:56:39;18.70;68.50
4985;DHT22;2509;49.902;8.600;2023-04-06T13:59:41;18.70;68.80
4985;DHT22;2509;49.902;8.600;2023-04-06T14:02:43;18.90;69.00
4985;DHT22;2509;49.902;8.600;2023-04-06T14:05:46;18.70;68.40
4985;DHT22;2509;49.902;8.600;2023-04-06T14:08:48;18.20;68.70
4985;DHT22;2509;49.902;8.600;2023-04-06T14:11:51;18.20;69.80
4985;DHT22;2509;49.902;8.600;2023-04-06T14:14:52;17.90;69.30
4985;DHT22;2509;49.902;8.600;2023-04-06T14:17:54;17.90;69.20
4985;DHT22;2509;49.902;8.600;2023-04-06T14:20:58;17.90;68.80
4985;DHT22;2509;49.902;8.600;2023-04-06T14:24:00;17.80;68.30
4985;DHT22;2509;49.902;8.600;2023-04-06T14:27:02;17.20;69.60
4985;DHT22;2509;49.902;8.600;2023-04-06T14:30:05;17.00;70.90
4985;DHT22;2509;49.902;8.600;2023-04-06T14:33:07;17.10;70.00
4985;DHT22;2509;49.902;8.600;2023-04-06T14:36:10;17.00;70.10
4985;DHT22;2509;49.902;8.600;2023-04-06T14:39:12;16.80;70.60
4985;DHT22;2509;49.902;8.600;2023-04-06T14:42:14;16.80;71.00
4985;DHT22;2509;49.902;8.600;2023-04-06T14:45:15;16.40;70.60
4985;DHT22;2509;49.902;8.600;2023-04-06T14:48:17;16.20;71.30
4985;DHT22;2509;49.902;8.600;2023-04-06T14:51:20;16.40;71.80
4985;DHT22;2509;49.902;8.600;2023-04-06T14:54:22;16.50;71.60
4985;DHT22;2509;49.902;8.600;2023-04-06T14:57:24;16.40;71.60
4985;DHT22;2509;49.902;8.600;2023-04-06T15:00:26;16.40;71.90
4985;DHT22;2509;49.902;8.600;2023-04-06T15:03:29;16.50;71.80
4985;DHT22;2509;49.902;8.600;2023-04-06T15:06:32;16.50;72.00
4985;DHT22;2509;49.902;8.600;2023-04-06T15:09:35;16.50;71.90
4985;DHT22;2509;49.902;8.600;2023-04-06T15:12:37;16.50;71.80
4985;DHT22;2509;49.902;8.600;2023-04-06T15:15:40;16.40;72.10
4985;DHT22;2509;49.902;8.600;2023-04-06T15:18:42;16.20;72.20
4985;DHT22;2509;49.902;8.600;2023-04-06T15:21:45;16.00;72.20
4985;DHT22;2509;49.902;8.600;2023-04-06T15:24:47;16.00;72.00
4985;DHT22;2509;49.902;8.600;2023-04-06T15:27:49;15.80;72.00
4985;DHT22;2509;49.902;8.600;2023-04-06T15:30:50;15.70;72.20
4985;DHT22;2509;49.902;8.600;2023-04-06T15:33:52;15.50;72.20
4985;DHT22;2509;49.902;8.600;2023-04-06T15:37:01;15.40;73.00
4985;DHT22;2509;49.902;8.600;2023-04-06T15:40:05;15.30;73.30
4985;DHT22;2509;49.902;8.600;2023-04-06T15:43:06;15.10;74.20
4985;DHT22;2509;49.902;8.600;2023-04-06T15:46:08;15.10;73.40
4985;DHT22;2509;49.902;8.600;2023-04-06T15:49:10;15.00;74.20
4985;DHT22;2509;49.902;8.600;2023-04-06T15:52:13;14.90;74.20
4985;DHT22;2509;49.902;8.600;2023-04-06T15:55:15;14.70;73.90
4985;DHT22;2509;49.902;8.600;2023-04-06T15:58:17;14.50;74.40
4985;DHT22;2509;49.902;8.600;2023-04-06T16:01:18;14.20;75.80
4985;DHT22;2509;49.902;8.600;2023-04-06T16:04:20;14.00;76.30
4985;DHT22;2509;49.902;8.600;2023-04-06T16:07:24;14.00;77.00
4985;DHT22;2509;49.902;8.600;2023-04-06T16:10:26;13.80;77.30
4985;DHT22;2509;49.902;8.600;2023-04-06T16:13:27;13.80;77.90
4985;DHT22;2509;49.902;8.600;2023-04-06T16:16:29;13.90;77.80
4985;DHT22;2509;49.902;8.600;2023-04-06T16:19:31;14.00;77.60
4985;DHT22;2509;49.902;8.600;2023-04-06T16:22:34;13.90;77.90
4985;DHT22;2509;49.902;8.600;2023-04-06T16:25:36;13.90;78.20
4985;DHT22;2509;49.902;8.600;2023-04-06T16:28:37;13.80;78.40
4985;DHT22;2509;49.902;8.600;2023-04-06T16:31:39;13.80;78.50
4985;DHT22;2509;49.902;8.600;2023-04-06T16:34:43;13.60;79.70
4985;DHT22;2509;49.902;8.600;2023-04-06T16:37:47;13.40;79.80
4985;DHT22;2509;49.902;8.600;2023-04-06T16:40:58;13.40;79.90
4985;DHT22;2509;49.902;8.600;2023-04-06T16:44:00;13.40;79.60
4985;DHT22;2509;49.902;8.600;2023-04-06T16:47:02;13.40;80.20
4985;DHT22;2509;49.902;8.600;2023-04-06T16:50:05;13.20;81.60
4985;DHT22;2509;49.902;8.600;2023-04-06T16:53:09;13.20;82.40
4985;DHT22;2509;49.902;8.600;2023-04-06T16:56:11;13.20;82.70
4985;DHT22;2509;49.902;8.600;2023-04-06T16:59:12;13.20;82.90
4985;DHT22;2509;49.902;8.600;2023-04-06T17:02:14;13.20;82.10
4985;DHT22;2509;49.902;8.600;2023-04-06T17:05:16;13.20;82.70
4985;DHT22;2509;49.902;8.600;2023-04-06T17:08:22;13.10;82.80
4985;DHT22;2509;49.902;8.600;2023-04-06T17:11:24;13.00;83.00
4985;DHT22;2509;49.902;8.600;2023-04-06T17:14:26;13.00;83.60
4985;DHT22;2509;49.902;8.600;2023-04-06T17:17:28;13.00;84.30
4985;DHT22;2509;49.902;8.600;2023-04-06T17:20:30;12.90;84.70
4985;DHT22;2509;49.902;8.600;2023-04-06T17:23:35;12.80;85.10
4985;DHT22;2509;49.902;8.600;2023-04-06T17:26:37;12.70;86.20
4985;DHT22;2509;49.902;8.600;2023-04-06T17:29:39;12.60;87.20
4985;DHT22;2509;49.902;8.600;2023-04-06T17:32:41;12.50;88.20
4985;DHT22;2509;49.902;8.600;2023-04-06T17:35:43;12.50;88.50
4985;DHT22;2509;49.902;8.600;2023-04-06T17:38:46;12.40;89.40
4985;DHT22;2509;49.902;8.600;2023-04-06T17:41:48;12.30;90.20
4985;DHT22;2509;49.902;8.600;2023-04-06T17:44:50;12.30;90.80
4985;DHT22;2509;49.902;8.600;2023-04-06T17:47:52;12.20;91.10
4985;DHT22;2509;49.902;8.600;2023-04-06T17:50:53;12.20;91.30
4985;DHT22;2509;49.902;8.600;2023-04-06T17:53:56;12.10;91.30
4985;DHT22;2509;49.902;8.600;2023-04-06T17:56:58;12.00;92.20
4985;DHT22;2509;49.902;8.600;2023-04-06T18:00:00;12.00;92.40
4985;DHT22;2509;49.902;8.600;2023-04-06T18:03:02;12.00;92.30
4985;DHT22;2509;49.902;8.600;2023-04-06T18:06:11;12.00;92.10
4985;DHT22;2509;49.902;8.600;2023-04-06T18:09:14;12.00;92.10
4985;DHT22;2509;49.902;8.600;2023-04-06T18:12:16;12.00;92.20
4985;DHT22;2509;49.902;8.600;2023-04-06T18:15:18;12.00;92.60
4985;DHT22;2509;49.902;8.600;2023-04-06T18:18:19;12.00;93.20
4985;DHT22;2509;49.902;8.600;2023-04-06T18:21:21;11.90;94.40
4985;DHT22;2509;49.902;8.600;2023-04-06T18:24:24;11.80;95.30
4985;DHT22;2509;49.902;8.600;2023-04-06T18:27:26;11.70;96.60
4985;DHT22;2509;49.902;8.600;2023-04-06T18:30:28;11.70;97.20
4985;DHT22;2509;49.902;8.600;2023-04-06T18:33:30;11.60;98.00
4985;DHT22;2509;49.902;8.600;2023-04-06T18:36:33;11.50;99.90
4985;DHT22;2509;49.902;8.600;2023-04-06T18:39:36;11.30;99.90
4985;DHT22;2509;49.902;8.600;2023-04-06T18:42:38;11.20;99.90
4985;DHT22;2509;49.902;8.600;2023-04-06T18:45:39;11.10;99.90
4985;DHT22;2509;49.902;8.600;2023-04-06T18:48:42;11.10;99.90
4985;DHT22;2509;49.902;8.600;2023-04-06T18:51:44;11.00;99.90
4985;DHT22;2509;49.902;8.600;2023-04-06T18:54:47;10.90;99.90
4985;DHT22;2509;49.902;8.600;2023-04-06T18:57:49;10.90;99.90
4985;DHT22;2509;49.902;8.600;2023-04-06T19:00:51;10.90;99.90
4985;DHT22;2509;49.902;8.600;2023-04-06T19:03:53;10.80;99.90
4985;DHT22;2509;49.902;8.600;2023-04-06T19:06:55;10.80;99.90
4985;DHT22;2509;49.902;8.600;2023-04-06T19:09:59;10.60;99.90
4985;DHT22;2509;49.902;8.600;2023-04-06T19:13:01;10.40;99.90
4985;DHT22;2509;49.902;8.600;2023-04-06T19:16:06;10.20;99.90
4985;DHT22;2509;49.902;8.600;2023-04-06T19:19:08;10.10;99.90
4985;DHT22;2509;49.902;8.600;2023-04-06T19:22:10;10.10;99.90
4985;DHT22;2509;49.902;8.600;2023-04-06T19:25:16;10.10;99.90
4985;DHT22;2509;49.902;8.600;2023-04-06T19:28:18;10.00;99.90
4985;DHT22;2509;49.902;8.600;2023-04-06T19:31:19;10.10;99.90
4985;DHT22;2509;49.902;8.600;2023-04-06T19:34:21;10.10;99.90
4985;DHT22;2509;49.902;8.600;2023-04-06T19:37:23;10.00;99.90
4985;DHT22;2509;49.902;8.600;2023-04-06T19:40:26;9.90;99.90
4985;DHT22;2509;49.902;8.600;2023-04-06T19:43:28;9.90;99.90
4985;DHT22;2509;49.902;8.600;2023-04-06T19:46:30;9.80;99.90
4985;DHT22;2509;49.902;8.600;2023-04-06T19:49:31;9.70;99.90
4985;DHT22;2509;49.902;8.600;2023-04-06T19:52:33;9.50;99.90
4985;DHT22;2509;49.902;8.600;2023-04-06T19:55:37;9.40;99.90
4985;DHT22;2509;49.902;8.600;2023-04-06T19:58:39;9.30;99.90
4985;DHT22;2509;49.902;8.600;2023-04-06T20:01:41;9.20;99.90